Time;durP1;ratioP1;P1;durP2;ratioP2;P2;SDS_P1;SDS_P2;PMS_P1;PMS_P2;Temp;Humidity;BMP_temperature;BMP_pressure;BME280_temperature;BME280_humidity;BME280_pressure;Samples;Min_cycle;Max_cycle;Signal;HPM_P1;HPM_P2
2023/06/12 00:01:03;;;;;;;;;;;;;;;;;;5033185;28;19929;-61
2023/06/12 00:03:28;;;;;;;;;;;;;;;;;;5022360;28;19921;-61
2023/06/12 00:05:58;;;;;;;;;;;;;;;;;;5013473;28;19928;-61
2023/06/12 00:08:24;;;;;;;;;;;;;;;;;;5031850;28;19925;-62
2023/06/12 00:10:50;;;;;;;;;;;;;;;;;;5024779;28;20429;-61
2023/06/12 00:13:16;;;;;;;;;;;;;;;;;;5030664;28;19928;-61
2023/06/12 00:15:42;;;;;;;;;;;;;;;;;;5030069;28;19932;-61
2023/06/12 00:18:08;;;;;;;;;;;;;;;;;;5020383;28;20318;-61
2023/06/12 00:20:33;;;;;;;;;;;;;;;;;;4993989;28;19925;-61
2023/06/12 00:23:00;;;;;;;;;;;;;;;;;;5031739;28;19921;-61
2023/06/12 00:25:26;;;;;;;;;;;;;;;;;;5029117;28;19929;-61
2023/06/12 00:27:52;;;;;;;;;;;;;;;;;;5027814;28;19921;-61
2023/06/12 00:30:17;;;;;;;;;;;;;;;;;;5002845;28;19932;-61
2023/06/12 00:32:43;;;;;;;;;;;;;;;;;;5028679;28;19925;-61
2023/06/12 00:35:09;;;;;;;;;;;;;;;;;;5028980;28;19925;-61
2023/06/12 00:37:35;;;;;;;;;;;;;;;;;;5027915;28;19928;-61
2023/06/12 00:40:01;;;;;;;;;;;;;;;;;;5028990;28;20008;-61
2023/06/12 00:42:27;;;;;;;;;;;;;;;;;;5030460;28;21009;-61
2023/06/12 00:44:53;;;;;;;;;;;;;;;;;;5031295;28;19929;-61
2023/06/12 00:47:20;;;;;;;;;;;;;;;;;;5024843;28;20283;-61
2023/06/12 00:49:45;;;;;;;;;;;;;;;;;;5022004;28;20379;-61
2023/06/12 00:52:12;;;;;;;;;;;;;;;;;;5031834;28;19982;-61
2023/06/12 00:54:38;;;;;;;;;;;;;;;;;;5032223;28;19921;-61
2023/06/12 00:57:04;;;;;;;;;;;;;;;;;;5014411;28;20003;-61
2023/06/12 00:59:30;;;;;;;;;;;;;;;;;;5013557;28;19929;-61
2023/06/12 01:01:56;;;;;;;;;;;;;;;;;;5029593;28;20016;-60
2023/06/12 01:04:22;;;;;;;;;;;;;;;;;;5030573;28;19952;-61
2023/06/12 01:06:48;;;;;;;;;;;;;;;;;;5029901;28;20003;-61
2023/06/12 01:09:14;;;;;;;;;;;;;;;;;;5011077;28;19947;-61
2023/06/12 01:11:40;;;;;;;;;;;;;;;;;;5027548;28;20283;-61
2023/06/12 01:14:06;;;;;;;;;;;;;;;;;;5031744;28;19921;-61
2023/06/12 01:16:32;;;;;;;;;;;;;;;;;;5031169;28;19975;-61
2023/06/12 01:19:00;;;;;;;;;;;;;;;;;;5032718;28;19927;-62
2023/06/12 01:21:29;;;;;;;;;;;;;;;;;;5030909;28;19925;-62
2023/06/12 01:23:55;;;;;;;;;;;;;;;;;;5013056;28;19983;-62
2023/06/12 01:26:26;;;;;;;;;;;;;;;;;;4998100;28;19921;-62
2023/06/12 01:28:52;;;;;;;;;;;;;;;;;;5015871;28;19925;-62
2023/06/12 01:31:18;;;;;;;;;;;;;;;;;;5027657;28;19936;-62
2023/06/12 01:33:44;;;;;;;;;;;;;;;;;;5032437;28;19925;-63
2023/06/12 01:36:10;;;;;;;;;;;;;;;;;;5011147;28;19925;-63
2023/06/12 01:38:36;;;;;;;;;;;;;;;;;;5030342;28;19936;-63
2023/06/12 01:41:02;;;;;;;;;;;;;;;;;;5016810;28;19957;-63
2023/06/12 01:43:28;;;;;;;;;;;;;;;;;;5034187;28;19964;-62
2023/06/12 01:45:54;;;;;;;;;;;;;;;;;;5033795;28;19943;-62
2023/06/12 01:48:20;;;;;;;;;;;;;;;;;;5018761;28;19944;-62
2023/06/12 01:50:46;;;;;;;;;;;;;;;;;;5036485;28;19932;-62
2023/06/12 01:53:15;;;;;;;;;;;;;;;;;;5034066;28;20224;-62
2023/06/12 01:55:41;;;;;;;;;;;;;;;;;;5031522;28;20297;-62
2023/06/12 01:58:08;;;;;;;;;;;;;;;;;;5034217;28;19925;-62
2023/06/12 02:00:35;;;;;;;;;;;;;;;;;;5018976;28;20054;-62
2023/06/12 02:03:02;;;;;;;;;;;;;;;;;;5036353;28;19932;-63
2023/06/12 02:05:28;;;;;;;;;;;;;;;;;;5036424;28;20039;-62
2023/06/12 02:07:54;;;;;;;;;;;;;;;;;;5036386;28;19944;-62
2023/06/12 02:10:20;;;;;;;;;;;;;;;;;;5035877;28;20016;-62
2023/06/12 02:12:46;;;;;;;;;;;;;;;;;;5035733;28;20654;-62
2023/06/12 02:15:12;;;;;;;;;;;;;;;;;;5036324;28;19974;-62
2023/06/12 02:17:38;;;;;;;;;;;;;;;;;;5017995;28;20353;-62
2023/06/12 02:20:04;;;;;;;;;;;;;;;;;;5036039;28;20036;-62
2023/06/12 02:22:30;;;;;;;;;;;;;;;;;;5035280;28;19928;-62
2023/06/12 02:24:56;;;;;;;;;;;;;;;;;;5022431;28;19921;-62
2023/06/12 02:27:22;;;;;;;;;;;;;;;;;;5012939;28;19920;-62
2023/06/12 02:29:48;;;;;;;;;;;;;;;;;;5022212;28;19925;-62
2023/06/12 02:32:14;;;;;;;;;;;;;;;;;;5017986;28;20402;-62
2023/06/12 02:34:40;;;;;;;;;;;;;;;;;;5035725;28;19943;-62
2023/06/12 02:37:08;;;;;;;;;;;;;;;;;;5029739;28;20290;-62
2023/06/12 02:39:34;;;;;;;;;;;;;;;;;;5036114;28;19927;-61
2023/06/12 02:42:00;;;;;;;;;;;;;;;;;;5035447;28;19921;-61
2023/06/12 02:44:26;;;;;;;;;;;;;;;;;;5027780;28;19967;-61
2023/06/12 02:46:52;;;;;;;;;;;;;;;;;;5035518;28;19922;-62
2023/06/12 02:49:18;;;;;;;;;;;;;;;;;;5035286;28;19925;-64
2023/06/12 02:51:44;;;;;;;;;;;;;;;;;;5035014;28;20294;-63
2023/06/12 02:54:10;;;;;;;;;;;;;;;;;;5034776;28;20301;-63
2023/06/12 02:56:35;;;;;;;;;;;;;;;;;;5035602;28;19921;-63
2023/06/12 02:59:03;;;;;;;;;;;;;;;;;;5035501;28;19921;-62
2023/06/12 03:01:30;;;;;;;;;;;;;;;;;;5034573;28;20001;-62
2023/06/12 03:03:56;;;;;;;;;;;;;;;;;;5032947;28;19921;-62
2023/06/12 03:06:28;;;;;;;;;;;;;;;;;;5034428;28;20008;-62
2023/06/12 03:08:54;;;;;;;;;;;;;;;;;;5034191;28;19931;-62
2023/06/12 03:11:20;;;;;;;;;;;;;;;;;;5034685;28;20019;-62
2023/06/12 03:13:46;;;;;;;;;;;;;;;;;;5035378;28;20393;-62
2023/06/12 03:16:12;;;;;;;;;;;;;;;;;;5034648;28;19925;-62
2023/06/12 03:18:38;;;;;;;;;;;;;;;;;;5034760;28;20345;-62
2023/06/12 03:21:04;;;;;;;;;;;;;;;;;;5034985;28;20370;-64
2023/06/12 03:23:30;;;;;;;;;;;;;;;;;;5035283;28;19928;-63
2023/06/12 03:25:56;;;;;;;;;;;;;;;;;;5016774;28;19921;-62
2023/06/12 03:28:23;;;;;;;;;;;;;;;;;;5034312;28;19932;-62
2023/06/12 03:30:49;;;;;;;;;;;;;;;;;;5034394;28;19967;-62
2023/06/12 03:33:15;;;;;;;;;;;;;;;;;;5033630;28;19983;-62
2023/06/12 03:35:41;;;;;;;;;;;;;;;;;;5032442;28;19932;-62
2023/06/12 03:38:07;;;;;;;;;;;;;;;;;;5033670;28;19921;-62
2023/06/12 03:40:33;;;;;;;;;;;;;;;;;;5034375;28;20004;-62
2023/06/12 03:42:59;;;;;;;;;;;;;;;;;;5034459;28;20079;-62
2023/06/12 03:45:25;;;;;;;;;;;;;;;;;;5032609;28;20285;-62
2023/06/12 03:47:51;;;;;;;;;;;;;;;;;;5016562;28;19925;-62
2023/06/12 03:50:19;;;;;;;;;;;;;;;;;;5015312;28;19936;-62
2023/06/12 03:52:45;;;;;;;;;;;;;;;;;;5028990;28;19987;-63
2023/06/12 03:55:12;;;;;;;;;;;;;;;;;;5029151;28;20343;-62
2023/06/12 03:57:37;;;;;;;;;;;;;;;;;;5026300;28;19961;-62
2023/06/12 04:00:04;;;;;;;;;;;;;;;;;;5026312;28;19975;-61
2023/06/12 04:02:30;;;;;;;;;;;;;;;;;;5033028;28;19925;-61
2023/06/12 04:04:56;;;;;;;;;;;;;;;;;;5015674;28;20004;-61
2023/06/12 04:07:22;;;;;;;;;;;;;;;;;;5020424;28;19922;-62
2023/06/12 04:09:48;;;;;;;;;;;;;;;;;;5024190;28;19922;-62
2023/06/12 04:12:14;;;;;;;;;;;;;;;;;;5033837;28;19933;-62
2023/06/12 04:14:40;;;;;;;;;;;;;;;;;;5035743;28;20397;-62
2023/06/12 04:17:06;;;;;;;;;;;;;;;;;;5031340;28;19920;-62
2023/06/12 04:19:32;;;;;;;;;;;;;;;;;;5015835;28;19925;-62
2023/06/12 04:22:00;;;;;;;;;;;;;;;;;;5014749;28;19951;-62
2023/06/12 04:24:30;;;;;;;;;;;;;;;;;;5018447;28;19926;-62
2023/06/12 04:27:00;;;;;;;;;;;;;;;;;;5034287;28;20275;-62
2023/06/12 04:29:26;;;;;;;;;;;;;;;;;;5033306;28;20323;-62
2023/06/12 04:31:53;;;;;;;;;;;;;;;;;;5037567;28;20010;-63
2023/06/12 04:34:19;;;;;;;;;;;;;;;;;;5033397;28;20367;-63
2023/06/12 04:36:45;;;;;;;;;;;;;;;;;;5031259;28;19928;-63
2023/06/12 04:39:13;;;;;;;;;;;;;;;;;;5033121;28;19925;-63
2023/06/12 04:41:40;;;;;;;;;;;;;;;;;;5014805;28;19932;-63
2023/06/12 04:44:06;;;;;;;;;;;;;;;;;;5031753;28;19932;-63
2023/06/12 04:46:32;;;;;;;;;;;;;;;;;;5015254;28;19921;-63
2023/06/12 04:48:59;;;;;;;;;;;;;;;;;;5015153;28;20272;-63
2023/06/12 04:51:24;;;;;;;;;;;;;;;;;;5026192;28;19926;-63
2023/06/12 04:53:53;;;;;;;;;;;;;;;;;;5030925;28;19929;-63
2023/06/12 04:56:22;;;;;;;;;;;;;;;;;;5032069;28;19925;-63
2023/06/12 04:58:49;;;;;;;;;;;;;;;;;;5014704;28;19921;-63
2023/06/12 05:01:15;;;;;;;;;;;;;;;;;;5028102;28;19928;-62
2023/06/12 05:03:41;;;;;;;;;;;;;;;;;;5015405;28;19932;-62
2023/06/12 05:06:07;;;;;;;;;;;;;;;;;;5012800;28;19921;-62
2023/06/12 05:08:33;;;;;;;;;;;;;;;;;;5031803;28;20270;-62
2023/06/12 05:10:59;;;;;;;;;;;;;;;;;;5018696;28;19995;-62
2023/06/12 05:13:25;;;;;;;;;;;;;;;;;;5027767;28;19995;-62
2023/06/12 05:15:51;;;;;;;;;;;;;;;;;;5031880;28;19929;-62
2023/06/12 05:18:17;;;;;;;;;;;;;;;;;;5011712;28;19925;-63
2023/06/12 05:20:43;;;;;;;;;;;;;;;;;;5030370;28;20405;-63
2023/06/12 05:23:08;;;;;;;;;;;;;;;;;;5031979;28;19955;-63
2023/06/12 05:25:34;;;;;;;;;;;;;;;;;;5013333;28;19929;-63
2023/06/12 05:28:00;;;;;;;;;;;;;;;;;;5031680;28;20382;-63
2023/06/12 05:30:26;;;;;;;;;;;;;;;;;;5030530;28;19929;-63
2023/06/12 05:32:52;;;;;;;;;;;;;;;;;;5012952;28;20370;-63
2023/06/12 05:35:18;;;;;;;;;;;;;;;;;;5025759;28;19921;-62
2023/06/12 05:37:44;;;;;;;;;;;;;;;;;;5013031;28;19925;-62
2023/06/12 05:40:10;;;;;;;;;;;;;;;;;;5028595;28;20043;-62
2023/06/12 05:42:36;;;;;;;;;;;;;;;;;;5032650;28;19940;-62
2023/06/12 05:45:02;;;;;;;;;;;;;;;;;;5031664;28;19921;-62
2023/06/12 05:47:28;;;;;;;;;;;;;;;;;;5031986;28;20333;-62
2023/06/12 05:49:54;;;;;;;;;;;;;;;;;;5030909;28;19947;-63
2023/06/12 05:52:20;;;;;;;;;;;;;;;;;;5029280;28;19925;-63
2023/06/12 05:54:46;;;;;;;;;;;;;;;;;;5031068;28;19921;-63
2023/06/12 05:57:13;;;;;;;;;;;;;;;;;;5031670;28;20366;-62
2023/06/12 05:59:38;;;;;;;;;;;;;;;;;;5031630;28;19921;-62
2023/06/12 06:02:04;;;;;;;;;;;;;;;;;;5029638;28;19943;-62
2023/06/12 06:04:30;;;;;;;;;;;;;;;;;;5032366;28;19935;-63
2023/06/12 06:07:00;;;;;;;;;;;;;;;;;;5029184;28;19921;-62
2023/06/12 06:09:27;;;;;;;;;;;;;;;;;;5023576;28;19988;-63
2023/06/12 06:11:53;;;;;;;;;;;;;;;;;;5031426;28;20012;-63
2023/06/12 06:14:19;;;;;;;;;;;;;;;;;;5008419;28;20351;-62
2023/06/12 06:16:45;;;;;;;;;;;;;;;;;;5027864;28;19927;-63
2023/06/12 06:19:11;;;;;;;;;;;;;;;;;;5009074;28;19971;-63
2023/06/12 06:21:38;;;;;;;;;;;;;;;;;;5023314;28;19924;-63
2023/06/12 06:24:04;;;;;;;;;;;;;;;;;;5030687;28;20000;-63
2023/06/12 06:26:31;;;;;;;;;;;;;;;;;;5015899;28;20016;-66
2023/06/12 06:28:57;;;;;;;;;;;;;;;;;;5029981;28;20377;-66
2023/06/12 06:31:23;;;;;;;;;;;;;;;;;;5009736;28;20022;-66
2023/06/12 06:33:49;;;;;;;;;;;;;;;;;;5027573;28;19927;-66
2023/06/12 06:36:15;;;;;;;;;;;;;;;;;;5032218;28;19921;-65
2023/06/12 06:38:41;;;;;;;;;;;;;;;;;;5011580;28;19936;-65
2023/06/12 06:41:07;;;;;;;;;;;;;;;;;;5011860;28;19956;-65
2023/06/12 06:43:32;;;;;;;;;;;;;;;;;;5024242;28;19968;-66
2023/06/12 06:45:58;;;;;;;;;;;;;;;;;;5021986;28;20359;-66
2023/06/12 06:48:25;;;;;;;;;;;;;;;;;;5031199;28;19928;-65
2023/06/12 06:50:51;;;;;;;;;;;;;;;;;;5031341;28;19929;-65
2023/06/12 06:53:16;;;;;;;;;;;;;;;;;;5030081;28;19925;-65
2023/06/12 06:55:42;;;;;;;;;;;;;;;;;;5031896;28;20337;-65
2023/06/12 06:58:08;;;;;;;;;;;;;;;;;;5032855;28;19925;-65
2023/06/12 07:00:34;;;;;;;;;;;;;;;;;;5011886;28;19921;-65
2023/06/12 07:03:00;;;;;;;;;;;;;;;;;;5024236;28;20007;-65
2023/06/12 07:05:27;;;;;;;;;;;;;;;;;;5030795;28;19928;-65
2023/06/12 07:07:53;;;;;;;;;;;;;;;;;;5033087;28;19921;-65
2023/06/12 07:10:19;;;;;;;;;;;;;;;;;;5014440;28;19925;-65
2023/06/12 07:12:45;;;;;;;;;;;;;;;;;;5027897;28;19928;-65
2023/06/12 07:15:11;;;;;;;;;;;;;;;;;;5026070;28;19929;-65
2023/06/12 07:17:37;;;;;;;;;;;;;;;;;;5029032;28;19921;-65
2023/06/12 07:20:05;;;;;;;;;;;;;;;;;;5029323;28;19925;-64
2023/06/12 07:22:30;;;;;;;;;;;;;;;;;;5031628;28;19925;-66
2023/06/12 07:24:56;;;;;;;;;;;;;;;;;;5031763;28;19928;-65
2023/06/12 07:27:22;;;;;;;;;;;;;;;;;;5031807;28;20278;-65
2023/06/12 07:29:48;;;;;;;;;;;;;;;;;;5028844;28;19933;-67
2023/06/12 07:32:14;;;;;;;;;;;;;;;;;;5024703;28;19932;-65
2023/06/12 07:34:40;;;;;;;;;;;;;;;;;;5023602;28;19921;-65
2023/06/12 07:37:07;;;;;;;;;;;;;;;;;;5027990;28;20034;-65
2023/06/12 07:39:33;;;;;;;;;;;;;;;;;;5028976;28;20337;-65
2023/06/12 07:41:59;;;;;;;;;;;;;;;;;;5033053;28;20024;-65
2023/06/12 07:44:25;;;;;;;;;;;;;;;;;;5027286;28;19926;-65
2023/06/12 07:46:51;;;;;;;;;;;;;;;;;;5011395;28;19924;-65
2023/06/12 07:49:17;;;;;;;;;;;;;;;;;;5032999;28;19929;-65
2023/06/12 07:51:43;;;;;;;;;;;;;;;;;;5013037;28;19933;-65
2023/06/12 07:54:08;;;;;;;;;;;;;;;;;;5030843;28;20007;-66
2023/06/12 07:56:35;;;;;;;;;;;;;;;;;;5015478;28;19928;-65
2023/06/12 07:59:01;;;;;;;;;;;;;;;;;;5029761;28;20027;-65
2023/06/12 08:01:28;;;;;;;;;;;;;;;;;;5010286;28;20003;-65
2023/06/12 08:03:56;;;;;;;;;;;;;;;;;;5026560;28;19952;-65
2023/06/12 08:06:24;;;;;;;;;;;;;;;;;;4995671;28;19928;-65
2023/06/12 08:08:51;;;;;;;;;;;;;;;;;;5028043;28;19964;-66
2023/06/12 08:11:17;;;;;;;;;;;;;;;;;;5033377;28;20024;-66
2023/06/12 08:13:43;;;;;;;;;;;;;;;;;;5029173;28;20020;-66
2023/06/12 08:16:09;;;;;;;;;;;;;;;;;;5031467;28;19921;-65
2023/06/12 08:18:35;;;;;;;;;;;;;;;;;;5014584;28;19925;-65
2023/06/12 08:21:01;;;;;;;;;;;;;;;;;;5028672;28;19925;-65
2023/06/12 08:23:27;;;;;;;;;;;;;;;;;;5014798;28;19928;-65
2023/06/12 08:25:53;;;;;;;;;;;;;;;;;;5029488;28;20425;-65
2023/06/12 08:28:19;;;;;;;;;;;;;;;;;;5028522;28;19931;-65
2023/06/12 08:30:45;;;;;;;;;;;;;;;;;;5012507;28;19921;-65
2023/06/12 08:33:11;;;;;;;;;;;;;;;;;;5028079;28;19971;-65
2023/06/12 08:35:37;;;;;;;;;;;;;;;;;;5030829;28;19956;-65
2023/06/12 08:38:03;;;;;;;;;;;;;;;;;;5030232;28;19921;-65
2023/06/12 08:40:29;;;;;;;;;;;;;;;;;;5032147;28;20278;-65
2023/06/12 08:42:55;;;;;;;;;;;;;;;;;;5028796;28;20011;-65
2023/06/12 08:45:21;;;;;;;;;;;;;;;;;;5031370;28;20411;-65
2023/06/12 08:47:48;;;;;;;;;;;;;;;;;;5031447;28;19932;-65
2023/06/12 08:50:14;;;;;;;;;;;;;;;;;;5030601;28;19936;-64
2023/06/12 08:52:40;;;;;;;;;;;;;;;;;;5030034;28;19925;-65
2023/06/12 08:55:07;;;;;;;;;;;;;;;;;;5031953;28;19921;-65
2023/06/12 08:57:33;;;;;;;;;;;;;;;;;;5024807;28;20262;-65
2023/06/12 08:59:59;;;;;;;;;;;;;;;;;;5022757;28;19928;-65
2023/06/12 09:02:25;;;;;;;;;;;;;;;;;;5018331;28;19979;-67
2023/06/12 09:04:54;;;;;;;;;;;;;;;;;;5031992;28;20360;-65
2023/06/12 09:07:21;;;;;;;;;;;;;;;;;;5031719;28;19921;-65
2023/06/12 09:09:46;;;;;;;;;;;;;;;;;;5013958;28;19988;-65
2023/06/12 09:12:12;;;;;;;;;;;;;;;;;;5030000;28;20342;-65
2023/06/12 09:14:38;;;;;;;;;;;;;;;;;;5031410;28;19928;-65
2023/06/12 09:17:04;;;;;;;;;;;;;;;;;;5028340;28;20351;-65
2023/06/12 09:19:30;;;;;;;;;;;;;;;;;;5013833;28;19971;-65
2023/06/12 09:21:56;;;;;;;;;;;;;;;;;;5012778;28;19968;-65
2023/06/12 09:24:22;;;;;;;;;;;;;;;;;;5015304;28;19978;-65
2023/06/12 09:26:48;;;;;;;;;;;;;;;;;;5010435;28;19954;-65
2023/06/12 09:29:14;;;;;;;;;;;;;;;;;;5030713;28;19921;-66
2023/06/12 09:31:40;;;;;;;;;;;;;;;;;;5020610;28;19929;-65
2023/06/12 09:34:06;;;;;;;;;;;;;;;;;;5025440;28;19929;-65
2023/06/12 09:36:32;;;;;;;;;;;;;;;;;;5024041;28;20410;-65
2023/06/12 09:38:57;;;;;;;;;;;;;;;;;;5010549;28;19925;-65
2023/06/12 09:41:24;;;;;;;;;;;;;;;;;;5021818;28;19932;-65
2023/06/12 09:43:50;;;;;;;;;;;;;;;;;;5008709;28;19928;-64
2023/06/12 09:46:16;;;;;;;;;;;;;;;;;;5028645;28;19921;-64
2023/06/12 09:48:42;;;;;;;;;;;;;;;;;;5029934;28;20015;-65
2023/06/12 09:51:08;;;;;;;;;;;;;;;;;;5024767;28;20008;-65
2023/06/12 09:53:35;;;;;;;;;;;;;;;;;;5028312;28;19921;-65
2023/06/12 09:56:01;;;;;;;;;;;;;;;;;;5015134;28;19925;-65
2023/06/12 09:58:27;;;;;;;;;;;;;;;;;;5029600;28;19928;-65
2023/06/12 10:00:55;;;;;;;;;;;;;;;;;;5030032;28;19925;-65
2023/06/12 10:03:21;;;;;;;;;;;;;;;;;;5028571;28;19928;-65
2023/06/12 10:05:47;;;;;;;;;;;;;;;;;;5046858;22;20050;-61
2023/06/12 10:08:13;;;;;;;;;;;;;;;;;;5008799;28;19925;-61
2023/06/12 10:10:39;;;;;;;;;;;;;;;;;;5007598;28;20024;-62
2023/06/12 10:13:05;;;;;;;;;;;;;;;;;;5009900;28;19925;-62
2023/06/12 10:15:31;;;;;;;;;;;;;;;;;;5012271;28;19926;-62
2023/06/12 10:17:56;;;;;;;;;;;;;;;;;;5007835;28;20393;-62
2023/06/12 10:20:22;;;;;;;;;;;;;;;;;;5013814;28;20290;-62
2023/06/12 10:22:48;;;;;;;;;;;;;;;;;;5001988;28;19957;-62
2023/06/12 10:25:14;;;;;;;;;;;;;;;;;;4997490;28;19926;-62
2023/06/12 10:27:42;;;;;;;;;;;;;;;;;;5002678;28;20132;-62
2023/06/12 10:30:08;;;;;;;;;;;;;;;;;;5006789;28;20371;-63
2023/06/12 10:32:34;;;;;;;;;;;;;;;;;;5012136;28;19922;-62
2023/06/12 10:35:01;;;;;;;;;;;;;;;;;;5010862;28;19953;-62
2023/06/12 10:37:27;;;;;;;;;;;;;;;;;;5010948;28;19922;-62
2023/06/12 10:39:53;;;;;;;;;;;;;;;;;;5008192;28;19995;-62
2023/06/12 10:42:19;;;;;;;;;;;;;;;;;;5013120;28;20323;-62
2023/06/12 10:44:44;;;;;;;;;;;;;;;;;;5012147;28;19932;-62
2023/06/12 10:47:10;;;;;;;;;;;;;;;;;;5010673;28;19997;-62
2023/06/12 10:49:36;;;;;;;;;;;;;;;;;;5012196;28;19926;-61
2023/06/12 10:52:02;;;;;;;;;;;;;;;;;;5011038;28;20370;-63
2023/06/12 10:54:28;;;;;;;;;;;;;;;;;;5010204;28;19965;-62
2023/06/12 10:56:54;;;;;;;;;;;;;;;;;;5012652;28;19968;-61
2023/06/12 10:59:20;;;;;;;;;;;;;;;;;;4996177;28;19929;-61
2023/06/12 11:01:46;;;;;;;;;;;;;;;;;;4991319;28;19933;-62
2023/06/12 11:04:12;;;;;;;;;;;;;;;;;;4994353;28;19940;-61
2023/06/12 11:06:38;;;;;;;;;;;;;;;;;;5012304;28;19967;-62
2023/06/12 11:09:05;;;;;;;;;;;;;;;;;;5013561;28;19945;-62
2023/06/12 11:11:30;;;;;;;;;;;;;;;;;;4996800;28;19925;-62
2023/06/12 11:13:56;;;;;;;;;;;;;;;;;;5008836;28;19928;-62
2023/06/12 11:16:26;;;;;;;;;;;;;;;;;;4993350;28;19988;-62
2023/06/12 11:18:52;;;;;;;;;;;;;;;;;;5013486;28;19925;-62
2023/06/12 11:21:20;;;;;;;;;;;;;;;;;;5010902;28;20276;-61
2023/06/12 11:23:46;;;;;;;;;;;;;;;;;;5009535;28;19925;-62
2023/06/12 11:26:12;;;;;;;;;;;;;;;;;;5011339;28;19929;-62
2023/06/12 11:28:38;;;;;;;;;;;;;;;;;;4999676;28;19925;-64
2023/06/12 11:31:07;;;;;;;;;;;;;;;;;;4986493;28;19933;-62
2023/06/12 11:33:33;;;;;;;;;;;;;;;;;;5010209;28;19926;-63
2023/06/12 11:35:59;;;;;;;;;;;;;;;;;;5009128;28;19928;-63
2023/06/12 11:38:25;;;;;;;;;;;;;;;;;;5010760;28;19971;-63
2023/06/12 11:40:51;;;;;;;;;;;;;;;;;;5011281;28;19929;-63
2023/06/12 11:43:17;;;;;;;;;;;;;;;;;;5009821;28;20140;-63
2023/06/12 11:45:43;;;;;;;;;;;;;;;;;;5006372;28;19937;-63
2023/06/12 11:48:14;;;;;;;;;;;;;;;;;;5008004;28;19925;-62
2023/06/12 11:50:39;;;;;;;;;;;;;;;;;;4999295;28;19930;-62
2023/06/12 11:53:05;;;;;;;;;;;;;;;;;;5012989;28;20374;-62
2023/06/12 11:55:32;;;;;;;;;;;;;;;;;;4973653;28;19933;-62
2023/06/12 11:57:58;;;;;;;;;;;;;;;;;;4999661;28;20459;-62
2023/06/12 12:00:25;;;;;;;;;;;;;;;;;;5008424;28;19928;-62
2023/06/12 12:02:53;;;;;;;;;;;;;;;;;;5005895;28;20444;-62
2023/06/12 12:05:19;;;;;;;;;;;;;;;;;;5001317;28;20571;-62
2023/06/12 12:07:45;;;;;;;;;;;;;;;;;;5007525;28;19926;-62
2023/06/12 12:10:11;;;;;;;;;;;;;;;;;;5009483;28;19930;-62
2023/06/12 12:12:37;;;;;;;;;;;;;;;;;;5011093;28;20401;-62
2023/06/12 12:15:03;;;;;;;;;;;;;;;;;;5008762;28;19921;-62
2023/06/12 12:17:29;;;;;;;;;;;;;;;;;;5009268;28;19921;-62
2023/06/12 12:19:55;;;;;;;;;;;;;;;;;;5007787;28;20445;-63
2023/06/12 12:22:21;;;;;;;;;;;;;;;;;;5010361;28;19979;-62
2023/06/12 12:24:47;;;;;;;;;;;;;;;;;;5005725;28;19965;-62
2023/06/12 12:27:13;;;;;;;;;;;;;;;;;;5011269;28;19931;-63
2023/06/12 12:29:39;;;;;;;;;;;;;;;;;;5010629;28;19933;-62
2023/06/12 12:32:05;;;;;;;;;;;;;;;;;;5008676;28;20383;-62
2023/06/12 12:34:31;;;;;;;;;;;;;;;;;;5004392;28;20579;-62
2023/06/12 12:36:57;;;;;;;;;;;;;;;;;;5011980;28;19936;-63
2023/06/12 12:39:23;;;;;;;;;;;;;;;;;;5006833;28;20000;-62
2023/06/12 12:41:49;;;;;;;;;;;;;;;;;;5006692;28;20012;-62
2023/06/12 12:44:14;;;;;;;;;;;;;;;;;;4995495;28;19968;-62
2023/06/12 12:46:40;;;;;;;;;;;;;;;;;;5003563;28;20386;-62
2023/06/12 12:49:06;;;;;;;;;;;;;;;;;;5007002;28;19932;-62
2023/06/12 12:51:32;;;;;;;;;;;;;;;;;;4991061;28;19922;-62
2023/06/12 12:53:58;;;;;;;;;;;;;;;;;;4992580;28;20360;-62
2023/06/12 12:56:24;;;;;;;;;;;;;;;;;;5010452;28;19922;-61
2023/06/12 12:58:50;;;;;;;;;;;;;;;;;;5010616;28;20478;-61
2023/06/12 13:01:16;;;;;;;;;;;;;;;;;;5006256;28;20043;-61
2023/06/12 13:03:42;;;;;;;;;;;;;;;;;;5009820;28;20347;-62
2023/06/12 13:06:08;;;;;;;;;;;;;;;;;;5008460;28;20363;-62
2023/06/12 13:08:37;;;;;;;;;;;;;;;;;;5012019;28;19921;-65
2023/06/12 13:11:03;;;;;;;;;;;;;;;;;;5007923;28;20378;-65
2023/06/12 13:13:29;;;;;;;;;;;;;;;;;;4991840;28;20256;-65
2023/06/12 13:15:55;;;;;;;;;;;;;;;;;;4979660;28;19929;-65
2023/06/12 13:18:21;;;;;;;;;;;;;;;;;;5007335;28;19961;-67
2023/06/12 13:20:47;;;;;;;;;;;;;;;;;;4989652;28;20409;-65
2023/06/12 13:23:13;;;;;;;;;;;;;;;;;;5010360;28;19928;-65
2023/06/12 13:25:39;;;;;;;;;;;;;;;;;;5007264;28;19929;-65
2023/06/12 13:28:04;;;;;;;;;;;;;;;;;;4992207;28;19937;-65
2023/06/12 13:30:30;;;;;;;;;;;;;;;;;;5003374;28;19941;-65
2023/06/12 13:32:56;;;;;;;;;;;;;;;;;;5009843;28;19922;-65
2023/06/12 13:35:22;;;;;;;;;;;;;;;;;;5008562;28;19945;-66
2023/06/12 13:37:48;;;;;;;;;;;;;;;;;;5009519;28;19921;-65
2023/06/12 13:40:14;;;;;;;;;;;;;;;;;;5008260;28;20321;-62
2023/06/12 13:42:40;;;;;;;;;;;;;;;;;;5009021;28;20056;-62
2023/06/12 13:45:06;;;;;;;;;;;;;;;;;;5005277;28;20080;-62
2023/06/12 13:47:32;;;;;;;;;;;;;;;;;;4997085;28;19929;-62
2023/06/12 13:49:58;;;;;;;;;;;;;;;;;;4991397;28;19930;-62
2023/06/12 13:52:24;;;;;;;;;;;;;;;;;;5003160;28;20129;-62
2023/06/12 13:54:50;;;;;;;;;;;;;;;;;;5003981;28;19979;-62
2023/06/12 13:57:16;;;;;;;;;;;;;;;;;;4992545;28;20132;-62
2023/06/12 13:59:42;;;;;;;;;;;;;;;;;;5003905;28;20468;-62
2023/06/12 14:02:08;;;;;;;;;;;;;;;;;;4997088;28;19922;-62
2023/06/12 14:04:34;;;;;;;;;;;;;;;;;;5008839;28;19953;-62
2023/06/12 14:07:00;;;;;;;;;;;;;;;;;;5010097;28;19929;-62
2023/06/12 14:09:26;;;;;;;;;;;;;;;;;;4999215;28;19988;-62
2023/06/12 14:11:55;;;;;;;;;;;;;;;;;;5006645;28;19929;-62
2023/06/12 14:14:21;;;;;;;;;;;;;;;;;;5000343;28;19929;-62
2023/06/12 14:16:47;;;;;;;;;;;;;;;;;;5002166;28;19926;-62
2023/06/12 14:19:13;;;;;;;;;;;;;;;;;;4993087;28;19921;-62
2023/06/12 14:21:39;;;;;;;;;;;;;;;;;;5011542;28;20319;-62
2023/06/12 14:24:05;;;;;;;;;;;;;;;;;;5010705;28;19925;-62
2023/06/12 14:26:31;;;;;;;;;;;;;;;;;;5010758;28;19936;-62
2023/06/12 14:28:57;;;;;;;;;;;;;;;;;;5007306;28;19972;-62
2023/06/12 14:31:23;;;;;;;;;;;;;;;;;;5006272;28;19921;-62
2023/06/12 14:33:49;;;;;;;;;;;;;;;;;;5009494;28;20001;-63
2023/06/12 14:36:15;;;;;;;;;;;;;;;;;;5003698;28;19956;-62
2023/06/12 14:38:41;;;;;;;;;;;;;;;;;;5008906;28;19928;-62
2023/06/12 14:41:06;;;;;;;;;;;;;;;;;;5009818;28;19995;-61
2023/06/12 14:43:32;;;;;;;;;;;;;;;;;;5007146;28;19925;-62
2023/06/12 14:45:58;;;;;;;;;;;;;;;;;;5008158;28;19972;-62
2023/06/12 14:48:24;;;;;;;;;;;;;;;;;;5011165;28;20220;-62
2023/06/12 14:50:50;;;;;;;;;;;;;;;;;;5010436;28;19971;-62
2023/06/12 14:53:16;;;;;;;;;;;;;;;;;;5012384;28;19930;-62
2023/06/12 14:55:43;;;;;;;;;;;;;;;;;;5014640;28;19921;-64
2023/06/12 14:58:10;;;;;;;;;;;;;;;;;;4999391;28;20016;-64
2023/06/12 15:00:36;;;;;;;;;;;;;;;;;;4994835;28;19922;-64
2023/06/12 15:03:01;;;;;;;;;;;;;;;;;;5003487;28;19925;-65
2023/06/12 15:05:27;;;;;;;;;;;;;;;;;;5014368;28;19945;-65
2023/06/12 15:07:53;;;;;;;;;;;;;;;;;;5014486;28;19948;-65
2023/06/12 15:10:19;;;;;;;;;;;;;;;;;;5014700;28;19925;-65
2023/06/12 15:12:45;;;;;;;;;;;;;;;;;;5011511;28;20314;-65
2023/06/12 15:15:11;;;;;;;;;;;;;;;;;;5014561;28;19932;-65
2023/06/12 15:17:37;;;;;;;;;;;;;;;;;;5013193;28;19925;-65
2023/06/12 15:20:03;;;;;;;;;;;;;;;;;;5013994;28;20390;-65
2023/06/12 15:22:29;;;;;;;;;;;;;;;;;;4996399;28;19922;-65
2023/06/12 15:24:55;;;;;;;;;;;;;;;;;;5014461;28;20012;-65
2023/06/12 15:27:21;;;;;;;;;;;;;;;;;;5012551;28;19992;-65
2023/06/12 15:29:47;;;;;;;;;;;;;;;;;;5012583;28;19929;-64
2023/06/12 15:32:12;;;;;;;;;;;;;;;;;;5012716;28;20015;-64
2023/06/12 15:34:38;;;;;;;;;;;;;;;;;;5014116;28;20012;-64
2023/06/12 15:37:04;;;;;;;;;;;;;;;;;;5013835;28;20286;-64
2023/06/12 15:39:30;;;;;;;;;;;;;;;;;;5013502;28;20335;-64
2023/06/12 15:41:56;;;;;;;;;;;;;;;;;;4985238;28;19925;-64
2023/06/12 15:44:22;;;;;;;;;;;;;;;;;;5013944;28;20367;-64
2023/06/12 15:46:48;;;;;;;;;;;;;;;;;;5005516;28;19932;-65
2023/06/12 15:49:14;;;;;;;;;;;;;;;;;;5013145;28;19965;-65
2023/06/12 15:51:40;;;;;;;;;;;;;;;;;;5013221;28;20383;-65
2023/06/12 15:54:05;;;;;;;;;;;;;;;;;;5011373;28;20020;-65
2023/06/12 15:56:31;;;;;;;;;;;;;;;;;;5011440;28;19930;-65
2023/06/12 15:58:57;;;;;;;;;;;;;;;;;;5012410;28;20378;-65
2023/06/12 16:01:23;;;;;;;;;;;;;;;;;;4997571;28;19926;-65
2023/06/12 16:03:49;;;;;;;;;;;;;;;;;;4995835;28;19964;-65
2023/06/12 16:06:15;;;;;;;;;;;;;;;;;;5012977;28;19952;-65
2023/06/12 16:08:41;;;;;;;;;;;;;;;;;;5010548;28;20245;-66
2023/06/12 16:11:07;;;;;;;;;;;;;;;;;;5010450;28;19921;-65
2023/06/12 16:13:33;;;;;;;;;;;;;;;;;;5012774;28;19926;-66
2023/06/12 16:15:59;;;;;;;;;;;;;;;;;;5010754;28;19925;-66
2023/06/12 16:18:25;;;;;;;;;;;;;;;;;;5011029;28;21228;-65
2023/06/12 16:20:51;;;;;;;;;;;;;;;;;;5011711;28;19921;-65
2023/06/12 16:23:17;;;;;;;;;;;;;;;;;;5008797;28;20449;-66
2023/06/12 16:25:43;;;;;;;;;;;;;;;;;;5011865;28;20358;-66
2023/06/12 16:28:09;;;;;;;;;;;;;;;;;;5011092;28;19965;-65
2023/06/12 16:30:35;;;;;;;;;;;;;;;;;;5005248;28;19968;-65
2023/06/12 16:33:02;;;;;;;;;;;;;;;;;;5012301;28;19929;-65
2023/06/12 16:35:28;;;;;;;;;;;;;;;;;;5010419;28;19926;-59
2023/06/12 16:37:57;;;;;;;;;;;;;;;;;;5011006;28;19950;-59